createdAt,value
2019-01-19T00:01:53.084Z,47.70
2019-01-19T00:04:34.278Z,51.83
2019-01-19T00:07:08.107Z,50.70
2019-01-19T00:09:51.112Z,52.17
2019-01-19T00:12:53.902Z,51.17
2019-01-19T00:15:26.343Z,43.50
2019-01-19T00:18:04.691Z,40.20
2019-01-19T00:21:01.077Z,43.73
2019-01-19T00:23:41.260Z,37.73
2019-01-19T00:26:19.680Z,42.00
2019-01-19T00:29:10.239Z,44.00
2019-01-19T00:32:12.898Z,41.97
2019-01-19T00:34:56.670Z,41.23
2019-01-19T00:37:29.135Z,47.57
2019-01-19T00:40:10.389Z,46.53
2019-01-19T00:42:42.712Z,44.90
2019-01-19T00:45:23.907Z,45.37
2019-01-19T00:48:13.973Z,43.70
2019-01-19T00:50:59.764Z,44.10
2019-01-19T00:53:32.411Z,50.00
2019-01-19T00:56:22.597Z,49.27
2019-01-19T00:58:55.436Z,48.87
2019-01-19T01:01:48.793Z,47.20
2019-01-19T01:04:57.056Z,46.60
2019-01-19T01:07:53.074Z,44.67
2019-01-19T01:10:52.422Z,42.37
2019-01-19T01:13:48.474Z,44.13
2019-01-19T01:16:47.639Z,41.17
2019-01-19T01:19:50.149Z,47.63
2019-01-19T01:22:55.487Z,55.43
2019-01-19T01:26:04.338Z,52.30
2019-01-19T01:29:15.651Z,44.90
2019-01-19T01:32:39.462Z,52.47
2019-01-19T01:35:32.854Z,51.80
2019-01-19T01:38:02.976Z,53.17
2019-01-19T01:40:37.325Z,50.03
2019-01-19T01:43:16.338Z,51.77
2019-01-19T01:45:53.863Z,50.73
2019-01-19T01:48:32.763Z,52.77
2019-01-19T01:51:04.537Z,52.33
2019-01-19T01:53:42.223Z,57.73
2019-01-19T01:56:12.291Z,50.00
2019-01-19T01:58:46.608Z,51.00
2019-01-19T02:01:18.482Z,50.30
2019-01-19T02:04:06.923Z,55.10
2019-01-19T02:06:55.395Z,50.23
2019-01-19T02:09:42.191Z,53.37
2019-01-19T02:12:36.968Z,52.73
2019-01-19T02:15:29.606Z,50.37
2019-01-19T02:18:01.573Z,49.93
2019-01-19T02:20:42.182Z,51.60
2019-01-19T02:23:25.860Z,50.07
2019-01-19T02:25:57.562Z,52.93
2019-01-19T02:28:41.840Z,45.53
2019-01-19T02:31:25.175Z,55.33
2019-01-19T02:34:05.930Z,51.23
2019-01-19T02:36:52.949Z,52.93
2019-01-19T02:39:53.384Z,57.00
2019-01-19T02:42:43.131Z,53.77
2019-01-19T02:45:45.628Z,53.73
2019-01-19T02:48:32.043Z,54.97
2019-01-19T02:51:09.228Z,52.60
2019-01-19T02:53:46.702Z,47.93
2019-01-19T02:56:53.111Z,59.97
2019-01-19T02:59:24.801Z,53.60
2019-01-19T03:01:59.442Z,53.53
2019-01-19T03:04:42.871Z,53.97
2019-01-19T03:07:26.865Z,61.40
2019-01-19T03:10:07.360Z,50.90
2019-01-19T03:12:58.107Z,57.37
2019-01-19T03:15:49.790Z,56.23
2019-01-19T03:18:44.391Z,52.87
2019-01-19T03:21:25.364Z,48.33
2019-01-19T03:24:05.894Z,53.33
2019-01-19T03:26:43.586Z,53.73
2019-01-19T03:29:31.193Z,51.30
2019-01-19T03:32:22.469Z,53.07
2019-01-19T03:35:00.681Z,53.47
2019-01-19T03:37:53.415Z,52.13
2019-01-19T03:40:43.395Z,48.20
2019-01-19T03:43:45.380Z,47.03
2019-01-19T03:46:43.191Z,53.30
2019-01-19T03:49:48.194Z,51.50
2019-01-19T03:52:21.892Z,52.67
2019-01-19T03:55:10.014Z,47.80
2019-01-19T03:57:44.254Z,50.80
2019-01-19T04:00:25.027Z,55.93
2019-01-19T04:03:02.665Z,61.27
2019-01-19T04:05:40.011Z,49.33
2019-01-19T04:08:28.303Z,54.30
2019-01-19T04:11:12.152Z,49.07
2019-01-19T04:13:55.740Z,57.33
2019-01-19T04:16:45.591Z,59.47
2019-01-19T04:19:40.050Z,56.90
2019-01-19T04:22:11.883Z,53.73
2019-01-19T04:24:43.815Z,49.33
2019-01-19T04:27:12.699Z,53.63
2019-01-19T04:29:42.745Z,56.90
2019-01-19T04:32:11.439Z,49.37
2019-01-19T04:34:40.317Z,55.30
2019-01-19T04:37:09.245Z,55.13
2019-01-19T04:39:37.873Z,52.63
2019-01-19T04:42:07.960Z,49.50
2019-01-19T04:44:36.901Z,54.77
2019-01-19T04:47:05.625Z,60.00
2019-01-19T04:49:34.195Z,51.37
2019-01-19T04:52:02.875Z,59.27
2019-01-19T04:54:31.607Z,56.17
2019-01-19T04:57:00.316Z,47.50
2019-01-19T04:59:28.968Z,55.27
2019-01-19T05:01:58.823Z,46.20
2019-01-19T05:04:27.515Z,48.43
2019-01-19T05:06:56.247Z,46.57
2019-01-19T05:09:25.766Z,48.97
2019-01-19T05:11:54.372Z,46.90
2019-01-19T05:14:23.109Z,49.07
2019-01-19T05:16:51.760Z,44.73
2019-01-19T05:19:20.519Z,47.90
2019-01-19T05:21:49.198Z,45.37
2019-01-19T05:24:17.805Z,46.80
2019-01-19T05:26:46.653Z,46.67
2019-01-19T05:29:16.446Z,48.60
2019-01-19T05:31:45.103Z,45.70
2019-01-19T05:34:13.782Z,42.63
2019-01-19T05:36:42.497Z,42.90
2019-01-19T05:39:11.228Z,47.60
2019-01-19T05:41:39.870Z,47.33
2019-01-19T05:44:08.581Z,46.50
2019-01-19T05:46:38.535Z,48.80
2019-01-19T05:49:07.196Z,42.07
2019-01-19T05:51:35.867Z,48.10
2019-01-19T05:54:04.862Z,48.97
2019-01-19T05:56:33.595Z,45.17
2019-01-19T05:59:02.457Z,44.47
2019-01-19T06:01:31.137Z,51.03
2019-01-19T06:04:00.103Z,47.03
2019-01-19T06:06:30.860Z,41.47
2019-01-19T06:08:59.481Z,48.57
2019-01-19T06:11:28.229Z,44.07
2019-01-19T06:13:56.918Z,50.60
2019-01-19T06:16:25.718Z,50.20
2019-01-19T06:18:56.139Z,51.00
2019-01-19T06:21:26.579Z,54.33
2019-01-19T06:23:55.292Z,50.20
2019-01-19T06:26:25.611Z,48.10
2019-01-19T06:28:55.157Z,55.60
2019-01-19T06:31:27.159Z,50.87
2019-01-19T06:33:57.077Z,59.17
2019-01-19T06:36:25.782Z,54.33
2019-01-19T06:38:54.446Z,50.93
2019-01-19T06:41:23.063Z,46.27
2019-01-19T06:43:51.821Z,41.23
2019-01-19T06:46:20.454Z,41.73
2019-01-19T06:48:49.116Z,49.50
2019-01-19T06:51:17.836Z,47.87
2019-01-19T06:53:47.578Z,46.57
2019-01-19T06:56:16.461Z,51.20
2019-01-19T06:58:46.562Z,50.13
2019-01-19T07:01:15.415Z,47.70
2019-01-19T07:03:44.106Z,48.20
2019-01-19T07:06:12.870Z,46.37
2019-01-19T07:08:42.727Z,49.07
2019-01-19T07:11:11.469Z,43.77
2019-01-19T07:13:40.143Z,44.03
2019-01-19T07:16:08.766Z,45.17
2019-01-19T07:18:37.456Z,48.57
2019-01-19T07:21:06.233Z,47.17
2019-01-19T07:23:37.269Z,50.03
2019-01-19T07:26:06.904Z,42.00
2019-01-19T07:28:36.463Z,51.97
2019-01-19T07:31:05.792Z,46.57
2019-01-19T07:33:34.964Z,46.50
2019-01-19T07:36:05.383Z,41.40
2019-01-19T07:38:34.737Z,47.17
2019-01-19T07:41:04.355Z,50.70
2019-01-19T07:43:34.124Z,53.13
2019-01-19T07:46:06.003Z,54.67
2019-01-19T07:48:36.715Z,46.90
2019-01-19T07:51:06.110Z,48.00
2019-01-19T07:53:39.601Z,46.17
2019-01-19T07:56:09.102Z,43.27
2019-01-19T07:58:38.565Z,57.83
2019-01-19T08:01:08.568Z,43.27
2019-01-19T08:03:37.995Z,47.90
2019-01-19T08:06:07.510Z,51.63
2019-01-19T08:08:40.503Z,51.27
2019-01-19T08:11:11.339Z,50.20
2019-01-19T08:13:41.125Z,56.07
2019-01-19T08:16:11.198Z,47.83
2019-01-19T08:18:45.228Z,48.47
2019-01-19T08:21:17.857Z,123.53
2019-01-19T08:23:52.487Z,51.37
2019-01-19T08:26:23.724Z,46.80
2019-01-19T08:28:53.529Z,52.20
2019-01-19T08:31:23.386Z,48.27
2019-01-19T08:33:53.877Z,51.33
2019-01-19T08:36:24.588Z,52.50
2019-01-19T08:38:54.023Z,50.83
2019-01-19T08:41:26.951Z,49.23
2019-01-19T08:43:56.606Z,56.07
2019-01-19T08:46:26.111Z,49.70
2019-01-19T08:48:55.529Z,63.20
2019-01-19T08:51:25.712Z,52.93
2019-01-19T08:53:57.246Z,55.40
2019-01-19T08:56:26.733Z,50.27
2019-01-19T08:58:56.162Z,50.00
2019-01-19T09:01:25.557Z,52.60
2019-01-19T09:03:54.841Z,47.40
2019-01-19T09:06:24.444Z,52.70
2019-01-19T09:08:53.841Z,47.77
2019-01-19T09:11:28.135Z,49.90
2019-01-19T09:13:57.446Z,43.20
2019-01-19T09:16:26.862Z,54.63
2019-01-19T09:18:56.376Z,50.77
2019-01-19T09:21:26.625Z,44.37
2019-01-19T09:23:58.177Z,45.17
2019-01-19T09:26:27.694Z,50.23
2019-01-19T09:28:57.203Z,48.30
2019-01-19T09:31:26.889Z,50.07
2019-01-19T09:33:58.703Z,46.17
2019-01-19T09:36:27.647Z,49.23
2019-01-19T09:38:56.930Z,60.83
2019-01-19T09:41:26.226Z,49.50
2019-01-19T09:43:55.407Z,50.13
2019-01-19T09:46:24.802Z,58.03
2019-01-19T09:48:54.260Z,60.30
2019-01-19T09:51:23.427Z,70.40
2019-01-19T09:53:52.691Z,66.37
2019-01-19T09:56:21.927Z,63.87
2019-01-19T09:58:51.225Z,62.37
2019-01-19T10:01:20.502Z,62.30
2019-01-19T10:03:50.032Z,54.37
2019-01-19T10:06:19.239Z,49.10
2019-01-19T10:08:48.488Z,49.40
2019-01-19T10:11:17.793Z,56.17
2019-01-19T10:13:47.407Z,49.20
2019-01-19T10:16:16.751Z,43.40
2019-01-19T10:18:45.983Z,43.90
2019-01-19T10:21:15.332Z,48.93
2019-01-19T10:23:44.687Z,50.50
2019-01-19T10:26:13.850Z,47.90
2019-01-19T10:28:44.669Z,43.30
2019-01-19T10:31:14.029Z,47.83
2019-01-19T10:33:43.315Z,44.00
2019-01-19T10:36:12.473Z,47.70
2019-01-19T10:38:41.656Z,49.73
2019-01-19T10:41:10.828Z,50.20
2019-01-19T10:43:40.006Z,39.50
2019-01-19T10:46:09.283Z,52.17
2019-01-19T10:48:38.483Z,46.03
2019-01-19T10:51:07.911Z,43.93
2019-01-19T10:53:37.215Z,45.30
2019-01-19T10:56:06.986Z,39.57
2019-01-19T10:58:36.209Z,39.47
2019-01-19T11:01:05.483Z,44.90
2019-01-19T11:03:34.726Z,40.13
2019-01-19T11:06:04.023Z,35.03
2019-01-19T11:08:33.342Z,38.40
2019-01-19T11:11:02.599Z,39.23
2019-01-19T11:13:31.904Z,34.43
2019-01-19T11:16:01.258Z,34.90
2019-01-19T11:18:30.417Z,42.20
2019-01-19T11:20:59.598Z,41.73
2019-01-19T11:23:29.041Z,54.43
2019-01-19T11:25:58.349Z,45.97
2019-01-19T11:28:27.767Z,45.13
2019-01-19T11:30:57.551Z,50.80
2019-01-19T11:33:32.879Z,53.77
2019-01-19T11:36:02.380Z,37.43
2019-01-19T11:38:31.922Z,45.30
2019-01-19T11:41:01.438Z,34.43
2019-01-19T11:43:30.898Z,37.90
2019-01-19T11:46:00.101Z,44.40
2019-01-19T11:48:29.634Z,34.47
2019-01-19T11:50:59.066Z,39.07
2019-01-19T11:53:28.547Z,39.33
2019-01-19T11:56:00.355Z,40.20
2019-01-19T11:58:29.551Z,36.90
2019-01-19T12:00:58.823Z,34.30
2019-01-19T12:03:28.962Z,41.60
2019-01-19T12:05:58.128Z,42.50
2019-01-19T12:08:27.829Z,42.73
2019-01-19T12:10:57.246Z,30.83
2019-01-19T12:13:26.583Z,30.83
2019-01-19T12:15:56.735Z,45.83
2019-01-19T12:18:26.130Z,47.50
2019-01-19T12:20:55.595Z,41.03
2019-01-19T12:23:25.059Z,38.60
2019-01-19T12:25:54.536Z,37.53
2019-01-19T12:28:24.044Z,30.37
2019-01-19T12:30:53.322Z,36.83
2019-01-19T12:33:28.390Z,29.77
2019-01-19T12:35:58.880Z,31.53
2019-01-19T12:38:28.338Z,30.77
2019-01-19T12:40:59.975Z,39.23
2019-01-19T12:43:37.552Z,34.67
2019-01-19T12:46:07.024Z,36.63
2019-01-19T12:48:36.545Z,32.83
2019-01-19T12:51:06.103Z,34.00
2019-01-19T12:53:35.544Z,35.03
2019-01-19T12:56:05.117Z,38.43
2019-01-19T12:58:34.587Z,35.60
2019-01-19T13:01:04.813Z,40.47
2019-01-19T13:03:34.061Z,36.77
2019-01-19T13:06:06.518Z,34.57
2019-01-19T13:08:35.909Z,31.13
2019-01-19T13:11:17.368Z,35.47
2019-01-19T13:13:48.315Z,33.00
2019-01-19T13:16:29.945Z,32.23
2019-01-19T13:19:08.424Z,38.63
2019-01-19T13:21:52.939Z,39.10
2019-01-19T13:24:33.899Z,33.73
2019-01-19T13:27:28.891Z,36.70
2019-01-19T13:30:16.446Z,42.10
2019-01-19T13:33:01.266Z,43.90
2019-01-19T13:35:57.301Z,45.00
2019-01-19T13:38:32.558Z,45.33
2019-01-19T13:41:22.574Z,40.87
2019-01-19T13:44:15.842Z,42.00
2019-01-19T13:47:04.566Z,44.13
2019-01-19T13:50:03.180Z,37.37
2019-01-19T13:52:55.790Z,39.33
2019-01-19T13:55:43.883Z,50.53
2019-01-19T13:58:22.132Z,43.30
2019-01-19T14:00:57.136Z,45.10
2019-01-19T14:03:47.441Z,46.60
2019-01-19T14:06:25.791Z,38.93
2019-01-19T14:09:17.501Z,35.07
2019-01-19T14:11:55.916Z,32.90
2019-01-19T14:14:49.347Z,32.27
2019-01-19T14:17:25.674Z,38.70
2019-01-19T14:20:22.373Z,35.17
2019-01-19T14:22:58.503Z,37.37
2019-01-19T14:25:45.708Z,35.17
2019-01-19T14:28:25.396Z,34.17
2019-01-19T14:31:00.663Z,35.10
2019-01-19T14:33:33.498Z,44.37
2019-01-19T14:36:12.709Z,39.70
2019-01-19T14:38:56.792Z,47.37
2019-01-19T14:41:30.926Z,49.40
2019-01-19T14:44:09.861Z,38.73
2019-01-19T14:46:56.466Z,40.77
2019-01-19T14:49:45.246Z,58.60
2019-01-19T14:52:46.154Z,48.87
2019-01-19T14:55:31.106Z,49.40
2019-01-19T14:58:21.274Z,61.50
2019-01-19T15:01:02.699Z,48.47
2019-01-19T15:03:45.190Z,50.23
2019-01-19T15:06:20.999Z,44.87
2019-01-19T15:09:03.668Z,31.77
2019-01-19T15:11:48.952Z,40.97
2019-01-19T15:14:42.058Z,47.97
2019-01-19T15:17:24.638Z,36.30
2019-01-19T15:20:18.358Z,39.83
2019-01-19T15:23:10.693Z,39.27
2019-01-19T15:26:08.953Z,46.07
2019-01-19T15:28:57.503Z,39.37
2019-01-19T15:31:36.156Z,55.70
2019-01-19T15:34:20.651Z,72.30
2019-01-19T15:37:02.093Z,94.70
2019-01-19T15:39:52.533Z,86.13
2019-01-19T15:42:28.825Z,75.07
2019-01-19T15:45:19.239Z,65.63
2019-01-19T15:48:15.674Z,66.23
2019-01-19T15:50:56.803Z,58.40
2019-01-19T15:53:29.142Z,85.50
2019-01-19T15:56:09.675Z,88.00
2019-01-19T15:58:47.772Z,101.63
2019-01-19T16:01:26.066Z,95.93
2019-01-19T16:04:06.884Z,94.17
2019-01-19T16:06:51.109Z,99.20
2019-01-19T16:09:25.920Z,76.30
2019-01-19T16:12:13.323Z,76.90
2019-01-19T16:15:03.976Z,82.83
2019-01-19T16:17:46.535Z,76.00
2019-01-19T16:20:30.550Z,65.03
2019-01-19T16:23:03.221Z,74.03
2019-01-19T16:25:44.416Z,66.73
2019-01-19T16:28:19.403Z,67.90
2019-01-19T16:31:12.474Z,75.33
2019-01-19T16:34:01.191Z,81.30
2019-01-19T16:36:36.692Z,82.77
2019-01-19T16:39:11.667Z,85.13
2019-01-19T16:42:04.999Z,74.70
2019-01-19T16:44:55.374Z,77.90
2019-01-19T16:47:54.920Z,77.07
2019-01-19T16:50:45.042Z,90.97
2019-01-19T16:53:17.270Z,77.37
2019-01-19T16:55:49.804Z,85.87
2019-01-19T16:58:23.431Z,85.30
2019-01-19T17:01:07.960Z,104.37
2019-01-19T17:04:13.620Z,110.47
2019-01-19T17:06:52.855Z,121.67
2019-01-19T17:09:32.908Z,142.67
2019-01-19T17:12:22.834Z,145.93
2019-01-19T17:15:15.460Z,134.90
2019-01-19T17:17:51.515Z,141.73
2019-01-19T17:20:32.529Z,119.30
2019-01-19T17:23:04.797Z,123.03
2019-01-19T17:25:41.092Z,115.60
2019-01-19T17:28:34.774Z,116.07
2019-01-19T17:31:38.696Z,114.53
2019-01-19T17:34:23.085Z,110.13
2019-01-19T17:36:55.664Z,109.43
2019-01-19T17:39:50.942Z,109.03
2019-01-19T17:42:23.582Z,110.03
2019-01-19T17:45:03.282Z,116.50
2019-01-19T17:47:47.460Z,102.17
2019-01-19T17:50:25.434Z,114.60
2019-01-19T17:53:03.861Z,111.50
2019-01-19T17:55:38.813Z,97.57
2019-01-19T17:58:23.050Z,113.07
2019-01-19T18:01:21.530Z,105.27
2019-01-19T18:03:59.927Z,98.40
2019-01-19T18:06:50.048Z,105.10
2019-01-19T18:09:31.477Z,96.47
2019-01-19T18:12:12.647Z,97.93
2019-01-19T18:14:46.006Z,94.23
2019-01-19T18:17:33.095Z,92.00
2019-01-19T18:20:32.410Z,100.27
2019-01-19T18:23:27.121Z,102.80
2019-01-19T18:25:59.357Z,96.23
2019-01-19T18:28:44.078Z,103.77
2019-01-19T18:31:31.480Z,105.30
2019-01-19T18:34:15.699Z,118.60
2019-01-19T18:37:08.921Z,105.07
2019-01-19T18:39:47.074Z,114.33
2019-01-19T18:42:31.041Z,108.57
2019-01-19T18:45:23.020Z,109.33
2019-01-19T18:47:59.536Z,106.43
2019-01-19T18:50:43.949Z,111.77
2019-01-19T18:53:19.343Z,111.30
2019-01-19T18:55:55.248Z,124.40
2019-01-19T18:58:45.722Z,130.17
2019-01-19T19:01:18.217Z,123.73
2019-01-19T19:04:10.874Z,142.50
2019-01-19T19:06:45.746Z,152.73
2019-01-19T19:09:26.883Z,145.93
2019-01-19T19:12:09.881Z,130.87
2019-01-19T19:14:45.494Z,133.63
2019-01-19T19:17:33.141Z,128.13
2019-01-19T19:20:20.314Z,140.00
2019-01-19T19:23:12.590Z,140.67
2019-01-19T19:25:48.137Z,127.10
2019-01-19T19:28:43.922Z,147.10
2019-01-19T19:31:35.568Z,138.03
2019-01-19T19:34:20.039Z,142.60
2019-01-19T19:36:52.934Z,143.53
2019-01-19T19:39:44.871Z,130.53
2019-01-19T19:42:26.722Z,122.47
2019-01-19T19:45:26.199Z,119.37
2019-01-19T19:48:19.586Z,125.03
2019-01-19T19:51:03.775Z,117.83
2019-01-19T19:53:33.202Z,148.50
2019-01-19T19:56:01.585Z,144.43
2019-01-19T19:58:30.887Z,140.77
2019-01-19T20:01:00.363Z,125.70
2019-01-19T20:03:29.931Z,129.10
2019-01-19T20:05:59.887Z,127.27
2019-01-19T20:08:29.361Z,133.50
2019-01-19T20:10:58.878Z,123.10
2019-01-19T20:13:32.059Z,114.93
2019-01-19T20:16:01.547Z,112.83
2019-01-19T20:18:44.770Z,122.83
2019-01-19T20:21:14.257Z,134.37
2019-01-19T20:23:43.901Z,128.70
2019-01-19T20:26:13.432Z,123.33
2019-01-19T20:28:43.188Z,129.00
2019-01-19T20:31:12.450Z,123.60
2019-01-19T20:33:42.050Z,134.57
2019-01-19T20:36:12.573Z,121.37
2019-01-19T20:38:41.818Z,127.87
2019-01-19T20:41:11.422Z,125.77
2019-01-19T20:43:40.819Z,137.47
2019-01-19T20:46:10.301Z,130.67
2019-01-19T20:48:39.550Z,145.47
2019-01-19T20:51:09.010Z,147.97
2019-01-19T20:53:38.409Z,141.20
2019-01-19T20:56:08.284Z,123.10
2019-01-19T20:58:37.939Z,138.23
2019-01-19T21:01:07.390Z,123.83
2019-01-19T21:03:38.153Z,129.13
2019-01-19T21:06:08.112Z,124.67
2019-01-19T21:08:40.865Z,135.70
2019-01-19T21:11:10.537Z,140.70
2019-01-19T21:13:40.128Z,125.90
2019-01-19T21:16:09.815Z,139.00
2019-01-19T21:18:39.355Z,122.93
2019-01-19T21:21:10.317Z,130.43
2019-01-19T21:23:41.615Z,125.07
2019-01-19T21:26:10.915Z,125.93
2019-01-19T21:28:43.403Z,131.83
2019-01-19T21:31:13.136Z,131.20
2019-01-19T21:33:42.455Z,125.97
2019-01-19T21:36:12.385Z,135.43
2019-01-19T21:38:43.580Z,119.63
2019-01-19T21:41:13.031Z,137.73
2019-01-19T21:43:43.306Z,135.03
2019-01-19T21:46:13.200Z,128.77
2019-01-19T21:48:42.808Z,134.43
2019-01-19T21:51:14.288Z,126.93
2019-01-19T21:53:44.550Z,132.00
2019-01-19T21:56:14.076Z,134.10
2019-01-19T21:58:43.727Z,140.10
2019-01-19T22:01:13.054Z,133.03
2019-01-19T22:03:42.225Z,129.03
2019-01-19T22:06:11.737Z,136.27
2019-01-19T22:08:41.196Z,134.83
2019-01-19T22:11:10.755Z,139.83
2019-01-19T22:13:40.317Z,142.57
2019-01-19T22:16:09.767Z,136.77
2019-01-19T22:18:39.271Z,132.70
2019-01-19T22:21:08.747Z,146.97
2019-01-19T22:23:38.201Z,147.40
2019-01-19T22:26:10.173Z,142.00
2019-01-19T22:28:39.710Z,153.27
2019-01-19T22:31:09.215Z,145.63
2019-01-19T22:33:38.760Z,151.97
2019-01-19T22:36:08.232Z,149.67
2019-01-19T22:38:37.693Z,171.13
2019-01-19T22:41:07.005Z,160.90
2019-01-19T22:43:36.333Z,151.17
2019-01-19T22:46:05.881Z,153.67
2019-01-19T22:48:35.322Z,162.00
2019-01-19T22:51:11.035Z,157.10
2019-01-19T22:53:35.561Z,144.40
2019-01-19T22:56:05.302Z,149.00
2019-01-19T22:58:34.675Z,139.03
2019-01-19T23:01:18.840Z,153.83
2019-01-19T23:03:48.409Z,151.37
2019-01-19T23:06:17.896Z,145.87
2019-01-19T23:08:47.323Z,157.40
2019-01-19T23:11:16.586Z,143.47
2019-01-19T23:13:45.836Z,167.20
2019-01-19T23:16:15.135Z,159.53
2019-01-19T23:18:44.585Z,175.13
2019-01-19T23:21:14.040Z,178.27
2019-01-19T23:23:43.273Z,159.40
2019-01-19T23:26:13.372Z,164.90
2019-01-19T23:28:42.625Z,162.00
2019-01-19T23:31:12.071Z,146.10
2019-01-19T23:33:41.653Z,167.33
2019-01-19T23:36:11.143Z,156.10
2019-01-19T23:38:40.638Z,148.53
2019-01-19T23:41:10.113Z,157.87
2019-01-19T23:43:39.673Z,159.57
2019-01-19T23:46:09.170Z,166.03
2019-01-19T23:48:38.646Z,160.40
2019-01-19T23:51:08.093Z,162.03
2019-01-19T23:53:37.267Z,168.07
2019-01-19T23:56:06.797Z,161.43
2019-01-19T23:58:36.210Z,175.27
